sensor_id;sensor_type;location;lat;lon;timestamp;P1;durP1;ratioP1;P2;durP2;ratioP2
69410;SDS011;56604;48.652;9.194;2024-02-21T00:00:04;10.97;;;3.80;;
69410;SDS011;56604;48.652;9.194;2024-02-21T00:02:30;5.03;;;3.83;;
69410;SDS011;56604;48.652;9.194;2024-02-21T00:04:55;15.20;;;4.27;;
69410;SDS011;56604;48.652;9.194;2024-02-21T00:07:20;14.60;;;4.20;;
69410;SDS011;56604;48.652;9.194;2024-02-21T00:09:46;16.30;;;3.47;;
69410;SDS011;56604;48.652;9.194;2024-02-21T00:12:11;13.97;;;3.50;;
69410;SDS011;56604;48.652;9.194;2024-02-21T00:14:39;11.30;;;4.17;;
69410;SDS011;56604;48.652;9.194;2024-02-21T00:17:05;8.13;;;3.70;;
69410;SDS011;56604;48.652;9.194;2024-02-21T00:19:30;16.23;;;3.73;;
69410;SDS011;56604;48.652;9.194;2024-02-21T00:21:56;6.93;;;3.70;;
69410;SDS011;56604;48.652;9.194;2024-02-21T00:24:21;10.20;;;4.23;;
69410;SDS011;56604;48.652;9.194;2024-02-21T00:26:46;14.43;;;3.87;;
69410;SDS011;56604;48.652;9.194;2024-02-21T00:29:11;8.70;;;3.53;;
69410;SDS011;56604;48.652;9.194;2024-02-21T00:31:37;12.23;;;4.00;;
69410;SDS011;56604;48.652;9.194;2024-02-21T00:34:02;10.43;;;3.07;;
69410;SDS011;56604;48.652;9.194;2024-02-21T00:36:28;13.93;;;4.57;;
69410;SDS011;56604;48.652;9.194;2024-02-21T00:38:53;10.57;;;4.10;;
69410;SDS011;56604;48.652;9.194;2024-02-21T00:41:18;11.43;;;3.97;;
69410;SDS011;56604;48.652;9.194;2024-02-21T00:43:43;8.20;;;3.67;;
69410;SDS011;56604;48.652;9.194;2024-02-21T00:46:09;13.37;;;4.10;;
69410;SDS011;56604;48.652;9.194;2024-02-21T00:48:34;7.93;;;4.07;;
69410;SDS011;56604;48.652;9.194;2024-02-21T00:50:59;16.63;;;4.30;;
69410;SDS011;56604;48.652;9.194;2024-02-21T00:53:25;9.80;;;4.00;;
69410;SDS011;56604;48.652;9.194;2024-02-21T00:55:50;10.70;;;3.60;;
69410;SDS011;56604;48.652;9.194;2024-02-21T00:58:15;6.23;;;3.43;;
69410;SDS011;56604;48.652;9.194;2024-02-21T01:00:41;12.53;;;4.10;;
69410;SDS011;56604;48.652;9.194;2024-02-21T01:03:07;11.50;;;4.50;;
69410;SDS011;56604;48.652;9.194;2024-02-21T01:05:32;13.67;;;4.13;;
69410;SDS011;56604;48.652;9.194;2024-02-21T01:07:57;6.47;;;3.27;;
69410;SDS011;56604;48.652;9.194;2024-02-21T01:10:23;13.50;;;4.87;;
69410;SDS011;56604;48.652;9.194;2024-02-21T01:12:49;6.23;;;3.43;;
69410;SDS011;56604;48.652;9.194;2024-02-21T01:15:14;6.13;;;3.70;;
69410;SDS011;56604;48.652;9.194;2024-02-21T01:17:39;3.53;;;3.30;;
69410;SDS011;56604;48.652;9.194;2024-02-21T01:20:05;3.90;;;3.20;;
69410;SDS011;56604;48.652;9.194;2024-02-21T01:22:32;9.00;;;4.10;;
69410;SDS011;56604;48.652;9.194;2024-02-21T01:24:57;8.63;;;3.80;;
69410;SDS011;56604;48.652;9.194;2024-02-21T01:27:23;9.97;;;3.40;;
69410;SDS011;56604;48.652;9.194;2024-02-21T01:29:48;13.17;;;3.03;;
69410;SDS011;56604;48.652;9.194;2024-02-21T01:32:14;13.43;;;3.83;;
69410;SDS011;56604;48.652;9.194;2024-02-21T01:34:40;13.80;;;3.53;;
69410;SDS011;56604;48.652;9.194;2024-02-21T01:37:06;11.30;;;3.30;;
69410;SDS011;56604;48.652;9.194;2024-02-21T01:39:32;7.80;;;2.77;;
69410;SDS011;56604;48.652;9.194;2024-02-21T01:41:58;8.17;;;3.03;;
69410;SDS011;56604;48.652;9.194;2024-02-21T01:44:24;7.40;;;3.17;;
69410;SDS011;56604;48.652;9.194;2024-02-21T01:46:49;11.57;;;4.10;;
69410;SDS011;56604;48.652;9.194;2024-02-21T01:49:16;3.10;;;2.87;;
69410;SDS011;56604;48.652;9.194;2024-02-21T01:51:42;5.70;;;2.83;;
69410;SDS011;56604;48.652;9.194;2024-02-21T01:54:07;12.13;;;2.80;;
69410;SDS011;56604;48.652;9.194;2024-02-21T01:56:34;7.23;;;3.47;;
69410;SDS011;56604;48.652;9.194;2024-02-21T01:59:00;17.03;;;3.37;;
69410;SDS011;56604;48.652;9.194;2024-02-21T02:01:25;8.63;;;3.03;;
69410;SDS011;56604;48.652;9.194;2024-02-21T02:03:51;14.37;;;2.80;;
69410;SDS011;56604;48.652;9.194;2024-02-21T02:06:17;4.40;;;2.80;;
69410;SDS011;56604;48.652;9.194;2024-02-21T02:08:43;9.07;;;2.93;;
69410;SDS011;56604;48.652;9.194;2024-02-21T02:11:08;8.40;;;2.90;;
69410;SDS011;56604;48.652;9.194;2024-02-21T02:13:34;10.50;;;3.00;;
69410;SDS011;56604;48.652;9.194;2024-02-21T02:15:59;7.20;;;2.80;;
69410;SDS011;56604;48.652;9.194;2024-02-21T02:18:25;5.17;;;2.90;;
69410;SDS011;56604;48.652;9.194;2024-02-21T02:20:50;13.43;;;3.23;;
69410;SDS011;56604;48.652;9.194;2024-02-21T02:23:29;5.20;;;2.53;;
69410;SDS011;56604;48.652;9.194;2024-02-21T02:25:55;6.07;;;2.60;;
69410;SDS011;56604;48.652;9.194;2024-02-21T02:28:21;5.33;;;3.00;;
69410;SDS011;56604;48.652;9.194;2024-02-21T02:30:47;9.97;;;3.50;;
69410;SDS011;56604;48.652;9.194;2024-02-21T02:33:12;5.50;;;3.07;;
69410;SDS011;56604;48.652;9.194;2024-02-21T02:35:38;9.27;;;2.80;;
69410;SDS011;56604;48.652;9.194;2024-02-21T02:38:03;10.50;;;3.10;;
69410;SDS011;56604;48.652;9.194;2024-02-21T02:40:29;5.83;;;2.90;;
69410;SDS011;56604;48.652;9.194;2024-02-21T02:42:58;13.73;;;3.20;;
69410;SDS011;56604;48.652;9.194;2024-02-21T02:45:24;8.63;;;2.77;;
69410;SDS011;56604;48.652;9.194;2024-02-21T02:47:51;3.00;;;2.20;;
69410;SDS011;56604;48.652;9.194;2024-02-21T02:50:20;5.57;;;2.43;;
69410;SDS011;56604;48.652;9.194;2024-02-21T02:52:45;4.23;;;2.73;;
69410;SDS011;56604;48.652;9.194;2024-02-21T02:55:11;5.57;;;2.70;;
69410;SDS011;56604;48.652;9.194;2024-02-21T02:57:36;8.63;;;2.57;;
69410;SDS011;56604;48.652;9.194;2024-02-21T03:00:02;5.13;;;2.53;;
69410;SDS011;56604;48.652;9.194;2024-02-21T03:02:27;14.00;;;2.40;;
69410;SDS011;56604;48.652;9.194;2024-02-21T03:04:53;5.47;;;2.37;;
69410;SDS011;56604;48.652;9.194;2024-02-21T03:07:19;10.37;;;3.20;;
69410;SDS011;56604;48.652;9.194;2024-02-21T03:09:45;7.17;;;2.20;;
69410;SDS011;56604;48.652;9.194;2024-02-21T03:12:10;4.07;;;2.70;;
69410;SDS011;56604;48.652;9.194;2024-02-21T03:14:36;8.03;;;2.70;;
69410;SDS011;56604;48.652;9.194;2024-02-21T03:17:01;12.03;;;3.37;;
69410;SDS011;56604;48.652;9.194;2024-02-21T03:19:27;6.07;;;2.30;;
69410;SDS011;56604;48.652;9.194;2024-02-21T03:21:53;8.80;;;2.90;;
69410;SDS011;56604;48.652;9.194;2024-02-21T03:24:19;3.97;;;2.57;;
69410;SDS011;56604;48.652;9.194;2024-02-21T03:26:45;7.77;;;2.97;;
69410;SDS011;56604;48.652;9.194;2024-02-21T03:29:19;4.37;;;2.23;;
69410;SDS011;56604;48.652;9.194;2024-02-21T03:31:44;6.73;;;2.30;;
69410;SDS011;56604;48.652;9.194;2024-02-21T03:34:10;8.70;;;2.20;;
69410;SDS011;56604;48.652;9.194;2024-02-21T03:36:36;5.33;;;2.73;;
69410;SDS011;56604;48.652;9.194;2024-02-21T03:39:01;12.53;;;3.00;;
69410;SDS011;56604;48.652;9.194;2024-02-21T03:41:27;11.40;;;2.70;;
69410;SDS011;56604;48.652;9.194;2024-02-21T03:43:52;4.67;;;2.90;;
69410;SDS011;56604;48.652;9.194;2024-02-21T03:46:17;6.00;;;2.90;;
69410;SDS011;56604;48.652;9.194;2024-02-21T03:48:43;6.00;;;2.87;;
69410;SDS011;56604;48.652;9.194;2024-02-21T03:51:08;14.60;;;2.80;;
69410;SDS011;56604;48.652;9.194;2024-02-21T03:53:33;5.13;;;2.43;;
69410;SDS011;56604;48.652;9.194;2024-02-21T03:56:02;2.20;;;2.00;;
69410;SDS011;56604;48.652;9.194;2024-02-21T03:58:29;7.10;;;2.90;;
69410;SDS011;56604;48.652;9.194;2024-02-21T04:00:59;9.33;;;2.93;;
69410;SDS011;56604;48.652;9.194;2024-02-21T04:03:25;4.13;;;2.53;;
69410;SDS011;56604;48.652;9.194;2024-02-21T04:05:50;7.73;;;2.53;;
69410;SDS011;56604;48.652;9.194;2024-02-21T04:08:16;8.63;;;2.93;;
69410;SDS011;56604;48.652;9.194;2024-02-21T04:10:41;8.37;;;3.20;;
69410;SDS011;56604;48.652;9.194;2024-02-21T04:13:06;6.33;;;2.47;;
69410;SDS011;56604;48.652;9.194;2024-02-21T04:15:32;12.03;;;3.17;;
69410;SDS011;56604;48.652;9.194;2024-02-21T04:17:57;7.07;;;2.63;;
69410;SDS011;56604;48.652;9.194;2024-02-21T04:20:23;3.50;;;2.63;;
69410;SDS011;56604;48.652;9.194;2024-02-21T04:22:48;3.67;;;2.43;;
69410;SDS011;56604;48.652;9.194;2024-02-21T04:25:13;4.63;;;2.80;;
69410;SDS011;56604;48.652;9.194;2024-02-21T04:27:39;8.43;;;2.30;;
69410;SDS011;56604;48.652;9.194;2024-02-21T04:30:04;7.37;;;2.47;;
69410;SDS011;56604;48.652;9.194;2024-02-21T04:32:31;12.33;;;3.00;;
69410;SDS011;56604;48.652;9.194;2024-02-21T04:34:56;6.27;;;2.73;;
69410;SDS011;56604;48.652;9.194;2024-02-21T04:37:22;6.93;;;2.20;;
69410;SDS011;56604;48.652;9.194;2024-02-21T04:39:48;8.93;;;2.37;;
69410;SDS011;56604;48.652;9.194;2024-02-21T04:42:13;5.70;;;2.60;;
69410;SDS011;56604;48.652;9.194;2024-02-21T04:44:39;6.17;;;2.60;;
69410;SDS011;56604;48.652;9.194;2024-02-21T04:47:04;5.63;;;2.37;;
69410;SDS011;56604;48.652;9.194;2024-02-21T04:49:30;17.17;;;2.30;;
69410;SDS011;56604;48.652;9.194;2024-02-21T04:51:55;10.30;;;2.20;;
69410;SDS011;56604;48.652;9.194;2024-02-21T04:54:20;11.87;;;3.23;;
69410;SDS011;56604;48.652;9.194;2024-02-21T04:56:46;3.87;;;2.50;;
69410;SDS011;56604;48.652;9.194;2024-02-21T04:59:11;4.90;;;2.40;;
69410;SDS011;56604;48.652;9.194;2024-02-21T05:01:36;4.67;;;2.17;;
69410;SDS011;56604;48.652;9.194;2024-02-21T05:04:01;16.60;;;3.50;;
69410;SDS011;56604;48.652;9.194;2024-02-21T05:06:27;2.97;;;2.20;;
69410;SDS011;56604;48.652;9.194;2024-02-21T05:08:53;2.90;;;2.30;;
69410;SDS011;56604;48.652;9.194;2024-02-21T05:11:20;2.77;;;1.90;;
69410;SDS011;56604;48.652;9.194;2024-02-21T05:13:45;4.83;;;2.00;;
69410;SDS011;56604;48.652;9.194;2024-02-21T05:16:11;2.70;;;2.03;;
69410;SDS011;56604;48.652;9.194;2024-02-21T05:18:36;3.23;;;2.50;;
69410;SDS011;56604;48.652;9.194;2024-02-21T05:21:01;7.70;;;2.60;;
69410;SDS011;56604;48.652;9.194;2024-02-21T05:23:27;6.40;;;2.70;;
69410;SDS011;56604;48.652;9.194;2024-02-21T05:25:52;5.10;;;2.63;;
69410;SDS011;56604;48.652;9.194;2024-02-21T05:28:17;3.63;;;2.43;;
69410;SDS011;56604;48.652;9.194;2024-02-21T05:30:43;7.87;;;2.63;;
69410;SDS011;56604;48.652;9.194;2024-02-21T05:33:08;16.43;;;3.10;;
69410;SDS011;56604;48.652;9.194;2024-02-21T05:35:34;7.40;;;2.40;;
69410;SDS011;56604;48.652;9.194;2024-02-21T05:37:59;5.80;;;2.40;;
69410;SDS011;56604;48.652;9.194;2024-02-21T05:40:25;7.87;;;2.90;;
69410;SDS011;56604;48.652;9.194;2024-02-21T05:42:50;9.07;;;2.97;;
69410;SDS011;56604;48.652;9.194;2024-02-21T05:45:17;4.80;;;2.70;;
69410;SDS011;56604;48.652;9.194;2024-02-21T05:47:42;10.47;;;2.80;;
69410;SDS011;56604;48.652;9.194;2024-02-21T05:50:08;8.83;;;2.87;;
69410;SDS011;56604;48.652;9.194;2024-02-21T05:52:34;6.40;;;2.53;;
69410;SDS011;56604;48.652;9.194;2024-02-21T05:54:59;13.87;;;2.80;;
69410;SDS011;56604;48.652;9.194;2024-02-21T05:57:24;8.00;;;2.57;;
69410;SDS011;56604;48.652;9.194;2024-02-21T05:59:50;11.47;;;3.10;;
69410;SDS011;56604;48.652;9.194;2024-02-21T06:02:16;9.83;;;3.50;;
69410;SDS011;56604;48.652;9.194;2024-02-21T06:04:42;5.50;;;2.70;;
69410;SDS011;56604;48.652;9.194;2024-02-21T06:07:08;3.57;;;2.80;;
69410;SDS011;56604;48.652;9.194;2024-02-21T06:09:33;2.57;;;2.33;;
69410;SDS011;56604;48.652;9.194;2024-02-21T06:11:59;6.90;;;2.63;;
69410;SDS011;56604;48.652;9.194;2024-02-21T06:14:24;9.20;;;2.90;;
69410;SDS011;56604;48.652;9.194;2024-02-21T06:16:50;5.40;;;2.10;;
69410;SDS011;56604;48.652;9.194;2024-02-21T06:19:15;4.67;;;2.13;;
69410;SDS011;56604;48.652;9.194;2024-02-21T06:21:40;12.33;;;2.43;;
69410;SDS011;56604;48.652;9.194;2024-02-21T06:24:06;6.07;;;2.60;;
69410;SDS011;56604;48.652;9.194;2024-02-21T06:26:31;5.97;;;2.40;;
69410;SDS011;56604;48.652;9.194;2024-02-21T06:28:56;3.13;;;2.43;;
69410;SDS011;56604;48.652;9.194;2024-02-21T06:31:22;3.53;;;2.97;;
69410;SDS011;56604;48.652;9.194;2024-02-21T06:33:47;8.73;;;2.27;;
69410;SDS011;56604;48.652;9.194;2024-02-21T06:36:12;6.63;;;3.73;;
69410;SDS011;56604;48.652;9.194;2024-02-21T06:38:38;8.50;;;3.10;;
69410;SDS011;56604;48.652;9.194;2024-02-21T06:41:03;11.13;;;3.07;;
69410;SDS011;56604;48.652;9.194;2024-02-21T06:43:29;6.33;;;2.23;;
69410;SDS011;56604;48.652;9.194;2024-02-21T06:45:54;3.90;;;3.00;;
69410;SDS011;56604;48.652;9.194;2024-02-21T06:48:21;9.40;;;2.70;;
69410;SDS011;56604;48.652;9.194;2024-02-21T06:50:47;8.20;;;2.43;;
69410;SDS011;56604;48.652;9.194;2024-02-21T06:53:12;8.93;;;3.20;;
69410;SDS011;56604;48.652;9.194;2024-02-21T06:55:37;6.33;;;2.10;;
69410;SDS011;56604;48.652;9.194;2024-02-21T06:58:03;4.33;;;2.37;;
69410;SDS011;56604;48.652;9.194;2024-02-21T07:00:29;6.47;;;2.40;;
69410;SDS011;56604;48.652;9.194;2024-02-21T07:02:54;2.20;;;2.00;;
69410;SDS011;56604;48.652;9.194;2024-02-21T07:05:20;4.07;;;2.60;;
69410;SDS011;56604;48.652;9.194;2024-02-21T07:07:45;4.67;;;2.40;;
69410;SDS011;56604;48.652;9.194;2024-02-21T07:10:11;6.97;;;2.00;;
69410;SDS011;56604;48.652;9.194;2024-02-21T07:12:36;4.37;;;2.33;;
69410;SDS011;56604;48.652;9.194;2024-02-21T07:15:04;5.17;;;2.60;;
69410;SDS011;56604;48.652;9.194;2024-02-21T07:17:30;3.53;;;2.27;;
69410;SDS011;56604;48.652;9.194;2024-02-21T07:19:55;4.83;;;2.00;;
69410;SDS011;56604;48.652;9.194;2024-02-21T07:22:24;9.27;;;2.00;;
69410;SDS011;56604;48.652;9.194;2024-02-21T07:24:49;5.80;;;2.10;;
69410;SDS011;56604;48.652;9.194;2024-02-21T07:27:15;6.13;;;2.23;;
69410;SDS011;56604;48.652;9.194;2024-02-21T07:29:40;4.77;;;2.50;;
69410;SDS011;56604;48.652;9.194;2024-02-21T07:32:06;4.20;;;2.37;;
69410;SDS011;56604;48.652;9.194;2024-02-21T07:34:31;9.50;;;2.50;;
69410;SDS011;56604;48.652;9.194;2024-02-21T07:36:57;8.23;;;2.70;;
69410;SDS011;56604;48.652;9.194;2024-02-21T07:39:22;6.47;;;2.30;;
69410;SDS011;56604;48.652;9.194;2024-02-21T07:41:48;5.80;;;2.40;;
69410;SDS011;56604;48.652;9.194;2024-02-21T07:44:14;8.43;;;2.90;;
69410;SDS011;56604;48.652;9.194;2024-02-21T07:46:40;5.40;;;2.43;;
69410;SDS011;56604;48.652;9.194;2024-02-21T07:49:05;7.23;;;2.77;;
69410;SDS011;56604;48.652;9.194;2024-02-21T07:51:30;5.83;;;2.70;;
69410;SDS011;56604;48.652;9.194;2024-02-21T07:53:56;6.00;;;2.67;;
69410;SDS011;56604;48.652;9.194;2024-02-21T07:56:21;6.60;;;2.27;;
69410;SDS011;56604;48.652;9.194;2024-02-21T07:58:46;9.60;;;2.70;;
69410;SDS011;56604;48.652;9.194;2024-02-21T08:01:12;10.10;;;2.60;;
69410;SDS011;56604;48.652;9.194;2024-02-21T08:03:44;5.73;;;2.40;;
69410;SDS011;56604;48.652;9.194;2024-02-21T08:06:11;4.90;;;2.70;;
69410;SDS011;56604;48.652;9.194;2024-02-21T08:08:38;5.80;;;2.17;;
69410;SDS011;56604;48.652;9.194;2024-02-21T08:11:03;8.40;;;2.60;;
69410;SDS011;56604;48.652;9.194;2024-02-21T08:13:29;4.53;;;2.43;;
69410;SDS011;56604;48.652;9.194;2024-02-21T08:15:54;3.13;;;2.23;;
69410;SDS011;56604;48.652;9.194;2024-02-21T08:18:19;9.70;;;2.30;;
69410;SDS011;56604;48.652;9.194;2024-02-21T08:20:45;6.53;;;2.57;;
69410;SDS011;56604;48.652;9.194;2024-02-21T08:23:10;7.80;;;3.43;;
69410;SDS011;56604;48.652;9.194;2024-02-21T08:25:35;3.60;;;2.07;;
69410;SDS011;56604;48.652;9.194;2024-02-21T08:28:01;13.87;;;2.50;;
69410;SDS011;56604;48.652;9.194;2024-02-21T08:30:27;2.60;;;1.97;;
69410;SDS011;56604;48.652;9.194;2024-02-21T08:32:52;4.43;;;2.13;;
69410;SDS011;56604;48.652;9.194;2024-02-21T08:35:19;9.60;;;2.60;;
69410;SDS011;56604;48.652;9.194;2024-02-21T08:37:45;12.90;;;3.60;;
69410;SDS011;56604;48.652;9.194;2024-02-21T08:40:13;8.07;;;2.27;;
69410;SDS011;56604;48.652;9.194;2024-02-21T08:42:39;6.37;;;2.17;;
69410;SDS011;56604;48.652;9.194;2024-02-21T08:45:04;9.70;;;3.10;;
69410;SDS011;56604;48.652;9.194;2024-02-21T08:47:30;3.63;;;2.30;;
69410;SDS011;56604;48.652;9.194;2024-02-21T08:49:55;5.13;;;2.30;;
69410;SDS011;56604;48.652;9.194;2024-02-21T08:52:20;9.53;;;2.60;;
69410;SDS011;56604;48.652;9.194;2024-02-21T08:54:45;5.60;;;2.63;;
69410;SDS011;56604;48.652;9.194;2024-02-21T08:57:11;6.57;;;2.23;;
69410;SDS011;56604;48.652;9.194;2024-02-21T08:59:38;7.20;;;2.40;;
69410;SDS011;56604;48.652;9.194;2024-02-21T09:02:04;5.87;;;2.60;;
69410;SDS011;56604;48.652;9.194;2024-02-21T09:04:29;8.93;;;2.30;;
69410;SDS011;56604;48.652;9.194;2024-02-21T09:06:55;2.57;;;2.03;;
69410;SDS011;56604;48.652;9.194;2024-02-21T09:09:21;9.13;;;2.57;;
69410;SDS011;56604;48.652;9.194;2024-02-21T09:11:46;4.43;;;2.10;;
69410;SDS011;56604;48.652;9.194;2024-02-21T09:14:11;6.00;;;2.23;;
69410;SDS011;56604;48.652;9.194;2024-02-21T09:16:37;8.63;;;2.43;;
69410;SDS011;56604;48.652;9.194;2024-02-21T09:19:02;3.37;;;1.83;;
69410;SDS011;56604;48.652;9.194;2024-02-21T09:21:27;6.60;;;2.77;;
69410;SDS011;56604;48.652;9.194;2024-02-21T09:23:53;5.87;;;2.30;;
69410;SDS011;56604;48.652;9.194;2024-02-21T09:26:18;4.30;;;3.03;;
69410;SDS011;56604;48.652;9.194;2024-02-21T09:28:44;6.07;;;2.10;;
69410;SDS011;56604;48.652;9.194;2024-02-21T09:31:10;5.30;;;2.23;;
69410;SDS011;56604;48.652;9.194;2024-02-21T09:33:35;5.43;;;2.23;;
69410;SDS011;56604;48.652;9.194;2024-02-21T09:36:02;5.03;;;2.30;;
69410;SDS011;56604;48.652;9.194;2024-02-21T09:38:27;9.73;;;2.50;;
69410;SDS011;56604;48.652;9.194;2024-02-21T09:40:55;3.60;;;2.13;;
69410;SDS011;56604;48.652;9.194;2024-02-21T09:43:25;3.03;;;2.20;;
69410;SDS011;56604;48.652;9.194;2024-02-21T09:45:51;3.47;;;2.20;;
69410;SDS011;56604;48.652;9.194;2024-02-21T09:48:42;4.67;;;2.20;;
69410;SDS011;56604;48.652;9.194;2024-02-21T09:51:11;7.20;;;2.30;;
69410;SDS011;56604;48.652;9.194;2024-02-21T09:53:39;5.57;;;2.00;;
69410;SDS011;56604;48.652;9.194;2024-02-21T09:56:07;4.13;;;2.43;;
69410;SDS011;56604;48.652;9.194;2024-02-21T09:58:33;5.57;;;1.80;;
69410;SDS011;56604;48.652;9.194;2024-02-21T10:00:59;4.87;;;1.83;;
69410;SDS011;56604;48.652;9.194;2024-02-21T10:03:25;5.97;;;2.30;;
69410;SDS011;56604;48.652;9.194;2024-02-21T10:05:50;11.07;;;2.40;;
69410;SDS011;56604;48.652;9.194;2024-02-21T10:08:16;4.70;;;1.93;;
69410;SDS011;56604;48.652;9.194;2024-02-21T10:10:45;4.43;;;2.00;;
69410;SDS011;56604;48.652;9.194;2024-02-21T10:13:11;5.10;;;2.20;;
69410;SDS011;56604;48.652;9.194;2024-02-21T10:15:49;6.77;;;2.73;;
69410;SDS011;56604;48.652;9.194;2024-02-21T10:18:24;7.10;;;2.20;;
69410;SDS011;56604;48.652;9.194;2024-02-21T10:20:59;5.00;;;1.90;;
69410;SDS011;56604;48.652;9.194;2024-02-21T10:23:25;5.20;;;2.47;;
69410;SDS011;56604;48.652;9.194;2024-02-21T10:25:50;6.50;;;1.90;;
69410;SDS011;56604;48.652;9.194;2024-02-21T10:28:16;4.77;;;1.90;;
69410;SDS011;56604;48.652;9.194;2024-02-21T10:30:49;6.47;;;2.13;;
69410;SDS011;56604;48.652;9.194;2024-02-21T10:33:16;5.37;;;2.10;;
69410;SDS011;56604;48.652;9.194;2024-02-21T10:35:45;4.83;;;1.93;;
69410;SDS011;56604;48.652;9.194;2024-02-21T10:38:11;10.97;;;2.17;;
69410;SDS011;56604;48.652;9.194;2024-02-21T10:40:36;2.90;;;1.80;;
69410;SDS011;56604;48.652;9.194;2024-02-21T10:43:02;3.07;;;1.67;;
69410;SDS011;56604;48.652;9.194;2024-02-21T10:48:06;3.47;;;2.07;;
69410;SDS011;56604;48.652;9.194;2024-02-21T10:55:58;5.13;;;1.70;;
69410;SDS011;56604;48.652;9.194;2024-02-21T10:58:40;2.87;;;1.90;;
69410;SDS011;56604;48.652;9.194;2024-02-21T11:01:07;3.33;;;1.40;;
69410;SDS011;56604;48.652;9.194;2024-02-21T11:03:33;4.33;;;1.83;;
69410;SDS011;56604;48.652;9.194;2024-02-21T11:05:58;4.97;;;1.30;;
69410;SDS011;56604;48.652;9.194;2024-02-21T11:08:25;2.13;;;1.90;;
69410;SDS011;56604;48.652;9.194;2024-02-21T11:10:56;5.80;;;1.50;;
69410;SDS011;56604;48.652;9.194;2024-02-21T11:13:29;2.17;;;1.97;;
69410;SDS011;56604;48.652;9.194;2024-02-21T11:16:05;4.50;;;1.60;;
69410;SDS011;56604;48.652;9.194;2024-02-21T11:18:37;4.43;;;1.83;;
69410;SDS011;56604;48.652;9.194;2024-02-21T11:21:03;1.80;;;1.53;;
69410;SDS011;56604;48.652;9.194;2024-02-21T11:23:31;4.20;;;1.67;;
69410;SDS011;56604;48.652;9.194;2024-02-21T11:26:08;1.40;;;1.30;;
69410;SDS011;56604;48.652;9.194;2024-02-21T11:28:34;2.57;;;1.47;;
69410;SDS011;56604;48.652;9.194;2024-02-21T11:31:13;2.00;;;1.73;;
69410;SDS011;56604;48.652;9.194;2024-02-21T11:33:42;2.73;;;1.50;;
69410;SDS011;56604;48.652;9.194;2024-02-21T11:36:11;4.87;;;1.40;;
69410;SDS011;56604;48.652;9.194;2024-02-21T11:38:49;2.37;;;1.20;;
69410;SDS011;56604;48.652;9.194;2024-02-21T11:41:15;3.07;;;1.70;;
69410;SDS011;56604;48.652;9.194;2024-02-21T11:43:41;5.10;;;1.70;;
69410;SDS011;56604;48.652;9.194;2024-02-21T11:46:06;2.40;;;1.67;;
69410;SDS011;56604;48.652;9.194;2024-02-21T11:48:31;3.53;;;1.43;;
69410;SDS011;56604;48.652;9.194;2024-02-21T11:50:57;3.53;;;2.53;;
69410;SDS011;56604;48.652;9.194;2024-02-21T11:53:22;2.37;;;1.53;;
69410;SDS011;56604;48.652;9.194;2024-02-21T11:55:48;5.83;;;1.60;;
69410;SDS011;56604;48.652;9.194;2024-02-21T11:58:14;1.47;;;1.30;;
69410;SDS011;56604;48.652;9.194;2024-02-21T12:00:40;1.40;;;1.30;;
69410;SDS011;56604;48.652;9.194;2024-02-21T12:03:06;3.63;;;1.50;;
69410;SDS011;56604;48.652;9.194;2024-02-21T12:05:31;4.10;;;1.30;;
69410;SDS011;56604;48.652;9.194;2024-02-21T12:07:57;1.00;;;1.00;;
69410;SDS011;56604;48.652;9.194;2024-02-21T12:10:23;13.23;;;1.40;;
69410;SDS011;56604;48.652;9.194;2024-02-21T12:12:51;1.60;;;1.40;;
69410;SDS011;56604;48.652;9.194;2024-02-21T12:15:17;4.63;;;1.50;;
69410;SDS011;56604;48.652;9.194;2024-02-21T12:17:43;4.30;;;1.50;;
69410;SDS011;56604;48.652;9.194;2024-02-21T12:20:09;3.07;;;1.13;;
69410;SDS011;56604;48.652;9.194;2024-02-21T12:22:36;3.07;;;1.27;;
69410;SDS011;56604;48.652;9.194;2024-02-21T12:25:15;2.50;;;1.50;;
69410;SDS011;56604;48.652;9.194;2024-02-21T12:27:42;1.43;;;1.33;;
69410;SDS011;56604;48.652;9.194;2024-02-21T12:30:08;1.47;;;1.37;;
69410;SDS011;56604;48.652;9.194;2024-02-21T12:32:35;1.20;;;1.20;;
69410;SDS011;56604;48.652;9.194;2024-02-21T12:35:00;1.53;;;1.30;;
69410;SDS011;56604;48.652;9.194;2024-02-21T12:37:26;3.00;;;1.40;;
69410;SDS011;56604;48.652;9.194;2024-02-21T12:39:51;2.20;;;1.30;;
69410;SDS011;56604;48.652;9.194;2024-02-21T12:42:16;2.20;;;1.80;;
69410;SDS011;56604;48.652;9.194;2024-02-21T12:44:42;1.40;;;1.30;;
69410;SDS011;56604;48.652;9.194;2024-02-21T12:47:08;1.50;;;1.40;;
69410;SDS011;56604;48.652;9.194;2024-02-21T12:49:33;1.63;;;1.53;;
69410;SDS011;56604;48.652;9.194;2024-02-21T12:51:58;1.90;;;1.30;;
69410;SDS011;56604;48.652;9.194;2024-02-21T12:54:24;2.00;;;1.17;;
69410;SDS011;56604;48.652;9.194;2024-02-21T12:56:49;1.50;;;1.40;;
69410;SDS011;56604;48.652;9.194;2024-02-21T12:59:15;2.90;;;1.40;;
69410;SDS011;56604;48.652;9.194;2024-02-21T13:01:40;2.63;;;1.53;;
69410;SDS011;56604;48.652;9.194;2024-02-21T13:04:05;1.40;;;1.30;;
69410;SDS011;56604;48.652;9.194;2024-02-21T13:06:31;2.93;;;1.53;;
69410;SDS011;56604;48.652;9.194;2024-02-21T13:08:56;2.27;;;1.60;;
69410;SDS011;56604;48.652;9.194;2024-02-21T13:11:21;3.20;;;1.60;;
69410;SDS011;56604;48.652;9.194;2024-02-21T13:13:47;1.80;;;1.33;;
69410;SDS011;56604;48.652;9.194;2024-02-21T13:16:12;2.50;;;1.33;;
69410;SDS011;56604;48.652;9.194;2024-02-21T13:18:37;3.90;;;1.20;;
69410;SDS011;56604;48.652;9.194;2024-02-21T13:21:04;7.60;;;1.23;;
69410;SDS011;56604;48.652;9.194;2024-02-21T13:23:30;1.37;;;1.00;;
69410;SDS011;56604;48.652;9.194;2024-02-21T13:25:55;3.33;;;1.53;;
69410;SDS011;56604;48.652;9.194;2024-02-21T13:28:20;1.03;;;1.00;;
69410;SDS011;56604;48.652;9.194;2024-02-21T13:30:46;1.70;;;1.60;;
69410;SDS011;56604;48.652;9.194;2024-02-21T13:33:11;1.40;;;1.30;;
69410;SDS011;56604;48.652;9.194;2024-02-21T13:35:37;1.40;;;1.10;;
69410;SDS011;56604;48.652;9.194;2024-02-21T13:38:03;1.33;;;1.27;;
69410;SDS011;56604;48.652;9.194;2024-02-21T13:40:28;1.40;;;1.27;;
69410;SDS011;56604;48.652;9.194;2024-02-21T13:42:53;1.50;;;1.40;;
69410;SDS011;56604;48.652;9.194;2024-02-21T13:45:19;1.60;;;1.50;;
69410;SDS011;56604;48.652;9.194;2024-02-21T13:47:44;5.90;;;2.00;;
69410;SDS011;56604;48.652;9.194;2024-02-21T13:50:10;2.23;;;1.37;;
69410;SDS011;56604;48.652;9.194;2024-02-21T13:52:39;5.63;;;1.40;;
69410;SDS011;56604;48.652;9.194;2024-02-21T13:55:04;1.57;;;1.03;;
69410;SDS011;56604;48.652;9.194;2024-02-21T13:57:33;3.60;;;1.63;;
69410;SDS011;56604;48.652;9.194;2024-02-21T13:59:59;2.37;;;1.23;;
69410;SDS011;56604;48.652;9.194;2024-02-21T14:02:25;3.13;;;1.80;;
69410;SDS011;56604;48.652;9.194;2024-02-21T14:04:51;2.70;;;1.40;;
69410;SDS011;56604;48.652;9.194;2024-02-21T14:07:16;1.33;;;1.23;;
69410;SDS011;56604;48.652;9.194;2024-02-21T14:09:42;3.83;;;1.20;;
69410;SDS011;56604;48.652;9.194;2024-02-21T14:12:08;4.50;;;1.53;;
69410;SDS011;56604;48.652;9.194;2024-02-21T14:14:36;2.70;;;1.40;;
69410;SDS011;56604;48.652;9.194;2024-02-21T14:17:02;4.20;;;1.17;;
69410;SDS011;56604;48.652;9.194;2024-02-21T14:19:28;3.10;;;1.23;;
69410;SDS011;56604;48.652;9.194;2024-02-21T14:21:54;1.27;;;1.27;;
69410;SDS011;56604;48.652;9.194;2024-02-21T14:24:19;2.97;;;1.37;;
69410;SDS011;56604;48.652;9.194;2024-02-21T14:26:44;1.60;;;1.50;;
69410;SDS011;56604;48.652;9.194;2024-02-21T14:29:09;1.73;;;1.50;;
69410;SDS011;56604;48.652;9.194;2024-02-21T14:31:35;2.10;;;1.30;;
69410;SDS011;56604;48.652;9.194;2024-02-21T14:34:00;3.90;;;1.40;;
69410;SDS011;56604;48.652;9.194;2024-02-21T14:36:27;1.17;;;1.10;;
69410;SDS011;56604;48.652;9.194;2024-02-21T14:38:52;3.60;;;1.60;;
69410;SDS011;56604;48.652;9.194;2024-02-21T14:41:18;1.13;;;0.90;;
69410;SDS011;56604;48.652;9.194;2024-02-21T14:43:43;1.63;;;1.30;;
69410;SDS011;56604;48.652;9.194;2024-02-21T14:46:09;1.23;;;1.13;;